Time;durP1;ratioP1;P1;durP2;ratioP2;P2;SDS_P1;SDS_P2;PMS_P1;PMS_P2;Temp;Humidity;BMP_temperature;BMP_pressure;BME280_temperature;BME280_humidity;BME280_pressure;Samples;Min_cycle;Max_cycle;Signal;HPM_P1;HPM_P2
2021/04/20 00:01:50;;;;;;;29.50;26.27;;;8.00;93.40;;;;;;4895897;29;20096;-69
2021/04/20 00:04:16;;;;;;;30.65;24.77;;;8.00;93.40;;;;;;4895598;29;20435;-70
2021/04/20 00:06:42;;;;;;;31.38;25.60;;;8.00;93.40;;;;;;4896174;29;20423;-68
2021/04/20 00:09:09;;;;;;;31.85;25.73;;;7.90;93.40;;;;;;4895761;29;20021;-68
2021/04/20 00:11:37;;;;;;;31.77;26.23;;;7.90;93.50;;;;;;4895430;29;20503;-69
2021/04/20 00:14:04;;;;;;;31.15;25.35;;;7.80;93.50;;;;;;4895694;29;20469;-66
2021/04/20 00:16:30;;;;;;;32.42;25.77;;;7.80;93.60;;;;;;4895917;29;20044;-68
2021/04/20 00:18:56;;;;;;;32.97;25.52;;;7.80;93.60;;;;;;4895066;29;20029;-66
2021/04/20 00:21:22;;;;;;;30.80;25.88;;;7.70;93.60;;;;;;4895777;29;20435;-67
2021/04/20 00:23:47;;;;;;;32.42;25.63;;;7.70;93.60;;;;;;4895465;29;20097;-68
2021/04/20 00:26:13;;;;;;;30.02;26.55;;;7.60;93.70;;;;;;4898880;29;20071;-68
2021/04/20 00:28:38;;;;;;;33.80;26.17;;;7.60;93.70;;;;;;4899388;29;20087;-68
2021/04/20 00:31:04;;;;;;;31.95;27.23;;;7.60;93.70;;;;;;4898419;29;20040;-69
2021/04/20 00:33:29;;;;;;;32.78;26.20;;;7.50;93.80;;;;;;4899476;29;20025;-68
2021/04/20 00:35:55;;;;;;;31.42;26.85;;;7.50;93.80;;;;;;4897720;29;20107;-67
2021/04/20 00:38:20;;;;;;;31.80;25.85;;;7.50;93.90;;;;;;4898750;29;20085;-68
2021/04/20 00:40:46;;;;;;;37.90;26.98;;;7.60;93.90;;;;;;4898940;29;20434;-67
2021/04/20 00:43:12;;;;;;;32.25;26.58;;;7.60;93.90;;;;;;4899200;29;20041;-67
2021/04/20 00:45:39;;;;;;;32.70;26.48;;;7.60;93.90;;;;;;4898676;29;20029;-69
2021/04/20 00:48:06;;;;;;;34.00;26.52;;;7.60;94.00;;;;;;4898910;29;20029;-68
2021/04/20 00:50:35;;;;;;;35.45;28.27;;;7.60;94.00;;;;;;4897673;29;20024;-68
2021/04/20 00:53:00;;;;;;;33.40;27.08;;;7.60;94.10;;;;;;4898041;29;20048;-67
2021/04/20 00:55:27;;;;;;;33.45;26.35;;;7.50;94.10;;;;;;4899061;29;20029;-68
2021/04/20 00:57:52;;;;;;;32.78;25.70;;;7.50;94.00;;;;;;4898606;29;20381;-67
2021/04/20 01:00:26;;;;;;;33.15;26.42;;;7.50;94.00;;;;;;4898333;29;20025;-69
2021/04/20 01:02:53;;;;;;;32.67;26.17;;;7.50;94.10;;;;;;4898551;29;20047;-67
2021/04/20 01:05:23;;;;;;;32.67;26.77;;;7.50;94.10;;;;;;4897647;29;20061;-68
2021/04/20 01:07:49;;;;;;;33.75;26.48;;;7.50;94.10;;;;;;4897870;29;20029;-67
2021/04/20 01:10:15;;;;;;;35.78;27.95;;;7.40;94.10;;;;;;4898821;29;20029;-68
2021/04/20 01:12:42;;;;;;;32.42;25.80;;;7.40;94.20;;;;;;4898750;29;20037;-68
2021/04/20 01:15:12;;;;;;;31.35;26.17;;;7.40;94.20;;;;;;4896497;29;20060;-69
2021/04/20 01:17:37;;;;;;;32.42;26.92;;;7.40;94.20;;;;;;4898688;29;20039;-69
2021/04/20 01:20:10;;;;;;;33.50;26.88;;;7.40;94.30;;;;;;4898135;29;20033;-68
2021/04/20 01:22:42;;;;;;;36.63;27.30;;;7.40;94.20;;;;;;4897203;29;20039;-67
2021/04/20 01:25:10;;;;;;;36.00;27.48;;;7.30;94.20;;;;;;4896902;29;20048;-68
2021/04/20 01:27:36;;;;;;;32.95;25.88;;;7.30;94.20;;;;;;4897771;29;20381;-69
2021/04/20 01:30:08;;;;;;;33.88;27.10;;;7.30;94.20;;;;;;4898143;29;20051;-69
2021/04/20 01:32:38;;;;;;;33.80;27.70;;;7.30;94.20;;;;;;4898426;29;20565;-69
2021/04/20 01:35:06;;;;;;;33.17;27.30;;;7.30;94.20;;;;;;4897416;29;20089;-68
2021/04/20 01:37:32;;;;;;;33.40;26.85;;;7.30;94.20;;;;;;4897558;29;20032;-68
2021/04/20 01:39:58;;;;;;;34.97;26.88;;;7.20;94.20;;;;;;4898167;29;20025;-67
2021/04/20 01:42:23;;;;;;;34.40;27.88;;;7.20;94.20;;;;;;4897474;29;20080;-67
2021/04/20 01:44:49;;;;;;;34.83;28.10;;;7.20;94.20;;;;;;4897980;29;20040;-67
2021/04/20 01:47:15;;;;;;;35.30;28.52;;;7.10;94.20;;;;;;4898041;29;20051;-68
2021/04/20 01:49:40;;;;;;;33.42;26.95;;;7.10;94.30;;;;;;4897309;29;20029;-67
2021/04/20 01:52:06;;;;;;;36.65;27.83;;;7.10;94.30;;;;;;4897844;29;20037;-67
2021/04/20 01:54:32;;;;;;;34.83;27.52;;;7.10;94.30;;;;;;4896576;29;20084;-67
2021/04/20 01:56:59;;;;;;;34.38;27.48;;;7.10;94.30;;;;;;4897111;29;20056;-67
2021/04/20 01:59:25;;;;;;;34.60;26.75;;;7.00;94.30;;;;;;4897807;29;20029;-67
2021/04/20 02:01:51;;;;;;;34.42;26.40;;;7.00;94.30;;;;;;4896336;29;20036;-69
2021/04/20 02:04:16;;;;;;;37.00;28.17;;;7.00;94.60;;;;;;4897056;29;20032;-67
2021/04/20 02:06:42;;;;;;;33.15;26.80;;;7.00;94.30;;;;;;4898060;29;20028;-68
2021/04/20 02:09:09;;;;;;;38.33;29.17;;;7.00;94.40;;;;;;4896266;29;20115;-68
2021/04/20 02:11:34;;;;;;;34.72;26.27;;;6.90;94.30;;;;;;4895642;29;20504;-69
2021/04/20 02:14:01;;;;;;;34.28;27.77;;;6.90;94.30;;;;;;4897395;29;20032;-69
2021/04/20 02:16:28;;;;;;;33.78;27.55;;;6.90;94.40;;;;;;4896927;29;20025;-69
2021/04/20 02:19:05;;;;;;;34.50;27.65;;;6.90;94.40;;;;;;4895872;29;20123;-68
2021/04/20 02:21:32;;;;;;;35.60;29.50;;;6.90;94.40;;;;;;4896131;29;20433;-68
2021/04/20 02:23:58;;;;;;;37.10;29.40;;;6.90;94.40;;;;;;4896504;29;20497;-67
2021/04/20 02:26:32;;;;;;;36.15;27.67;;;6.80;94.40;;;;;;4897388;29;20067;-68
2021/04/20 02:29:02;;;;;;;36.55;28.67;;;6.80;94.40;;;;;;4897220;29;20055;-66
2021/04/20 02:31:28;;;;;;;36.67;28.42;;;6.80;94.40;;;;;;4896783;29;20381;-67
2021/04/20 02:33:55;;;;;;;35.58;27.13;;;6.80;94.40;;;;;;4896875;29;20028;-69
2021/04/20 02:36:23;;;;;;;34.97;28.25;;;6.70;94.40;;;;;;4897278;29;20036;-68
2021/04/20 02:38:49;;;;;;;36.67;28.33;;;6.70;94.40;;;;;;4896469;29;20060;-67
2021/04/20 02:41:17;;;;;;;36.50;28.15;;;6.70;94.50;;;;;;4897081;29;20500;-68
2021/04/20 02:43:45;;;;;;;38.72;28.23;;;6.70;94.50;;;;;;4897006;29;20444;-67
2021/04/20 02:46:12;;;;;;;38.13;29.42;;;6.60;94.50;;;;;;4896437;29;20052;-68
2021/04/20 02:48:38;;;;;;;36.70;27.77;;;6.60;94.50;;;;;;4896927;29;20088;-69
2021/04/20 02:51:08;;;;;;;34.85;27.95;;;6.60;94.50;;;;;;4895600;29;20032;-68
2021/04/20 02:53:35;;;;;;;35.83;27.10;;;6.60;94.50;;;;;;4894925;29;20497;-68
2021/04/20 02:56:00;;;;;;;33.67;26.73;;;6.60;94.60;;;;;;4895346;29;20033;-68
2021/04/20 02:58:28;;;;;;;33.17;25.70;;;6.60;94.60;;;;;;4896864;29;20040;-70
2021/04/20 03:01:04;;;;;;;36.15;28.23;;;6.50;94.50;;;;;;4895751;29;20362;-69
2021/04/20 03:03:36;;;;;;;35.97;27.05;;;6.50;94.60;;;;;;4896875;29;20064;-69
2021/04/20 03:06:02;;;;;;;33.75;27.15;;;6.50;94.60;;;;;;4894810;29;20036;-68
2021/04/20 03:08:29;;;;;;;34.88;27.55;;;6.50;94.60;;;;;;4896631;29;20508;-68
2021/04/20 03:11:00;;;;;;;35.92;27.55;;;6.50;94.60;;;;;;4896107;29;20024;-69
2021/04/20 03:13:26;;;;;;;35.28;27.45;;;6.40;94.60;;;;;;4896074;29;20058;-67
2021/04/20 03:15:53;;;;;;;36.22;28.85;;;6.40;94.60;;;;;;4896224;29;20032;-67
2021/04/20 03:18:18;;;;;;;38.15;29.23;;;6.40;94.60;;;;;;4895334;29;20024;-68
2021/04/20 03:20:44;;;;;;;37.92;29.45;;;6.30;94.60;;;;;;4895739;29;20040;-68
2021/04/20 03:23:12;;;;;;;37.83;28.65;;;6.30;94.60;;;;;;4896356;29;20068;-67
2021/04/20 03:25:37;;;;;;;34.85;27.00;;;6.30;94.60;;;;;;4896631;29;20035;-68
2021/04/20 03:28:03;;;;;;;41.45;29.58;;;6.30;94.60;;;;;;4894407;29;20041;-67
2021/04/20 03:30:31;;;;;;;37.13;28.60;;;6.20;94.60;;;;;;4894907;29;20021;-67
2021/04/20 03:33:15;;;;;;;39.45;29.45;;;6.20;94.60;;;;;;4896166;29;20036;-68
2021/04/20 03:35:56;;;;;;;36.10;27.83;;;6.20;94.60;;;;;;4895853;29;20029;-68
2021/04/20 03:38:52;;;;;;;41.28;29.33;;;6.20;94.70;;;;;;4896376;29;20509;-67
2021/04/20 03:41:39;;;;;;;39.88;29.13;;;6.20;94.70;;;;;;4895813;29;20025;-69
2021/04/20 03:44:08;;;;;;;37.25;26.35;;;6.20;94.70;;;;;;4895994;29;20078;-69
2021/04/20 03:46:37;;;;;;;32.40;24.45;;;6.20;94.70;;;;;;4896150;29;20084;-68
2021/04/20 03:49:24;;;;;;;29.70;22.90;;;6.20;94.70;;;;;;4895352;29;20091;-68
2021/04/20 03:51:53;;;;;;;32.97;24.75;;;6.20;94.80;;;;;;4896121;29;20024;-68
2021/04/20 03:54:21;;;;;;;30.63;24.30;;;6.20;94.80;;;;;;4895778;29;20512;-68
2021/04/20 03:56:49;;;;;;;31.88;23.90;;;6.20;94.90;;;;;;4895265;29;20040;-67
2021/04/20 03:59:16;;;;;;;30.67;23.65;;;6.20;94.90;;;;;;4896876;29;20028;-68
2021/04/20 04:01:46;;;;;;;29.08;23.33;;;6.10;94.90;;;;;;4898875;29;20025;-67
2021/04/20 04:04:17;;;;;;;33.72;24.88;;;6.10;94.90;;;;;;4899200;29;20044;-66
2021/04/20 04:06:45;;;;;;;;;;;6.10;94.90;;;;;;4900442;29;20128;-67
2021/04/20 04:09:12;;;;;;;31.63;23.30;;;6.00;94.90;;;;;;4899193;29;19915;-67
2021/04/20 04:11:46;;;;;;;29.25;21.50;;;6.00;94.80;;;;;;4898577;29;20025;-68
2021/04/20 04:14:14;;;;;;;32.20;23.50;;;5.90;94.80;;;;;;4898348;29;20083;-68
2021/04/20 04:16:44;;;;;;;29.05;23.00;;;5.90;94.80;;;;;;4899096;29;20108;-69
2021/04/20 04:19:11;;;;;;;31.98;23.77;;;5.80;94.80;;;;;;4899848;29;20069;-68
2021/04/20 04:21:43;;;;;;;34.28;25.23;;;5.80;94.90;;;;;;4899775;29;20021;-69
2021/04/20 04:24:10;;;;;;;33.78;26.63;;;5.80;94.90;;;;;;4898864;29;20033;-70
2021/04/20 04:26:37;;;;;;;34.03;24.25;;;5.80;94.90;;;;;;4899507;29;20029;-69
2021/04/20 04:29:04;;;;;;;34.50;24.88;;;5.70;95.10;;;;;;4897849;29;20040;-69
2021/04/20 04:31:34;;;;;;;39.40;26.73;;;5.70;94.90;;;;;;4897592;29;20032;-69
2021/04/20 04:34:01;;;;;;;36.67;27.33;;;5.70;94.90;;;;;;4897324;29;20558;-68
2021/04/20 04:36:28;;;;;;;38.70;28.15;;;5.70;94.90;;;;;;4897585;29;20119;-69
2021/04/20 04:38:53;;;;;;;39.28;27.80;;;5.70;95.00;;;;;;4913325;29;20426;-70
2021/04/20 04:41:19;;;;;;;38.60;27.13;;;5.70;95.00;;;;;;4894530;29;20141;-70
2021/04/20 04:43:45;;;;;;;38.38;28.98;;;5.70;95.00;;;;;;4912402;29;20514;-68
2021/04/20 04:46:11;;;;;;;41.35;30.23;;;5.70;95.00;;;;;;4898371;29;20041;-68
2021/04/20 04:48:37;;;;;;;36.53;27.73;;;5.70;95.00;;;;;;4898815;29;20108;-72
2021/04/20 04:51:07;;;;;;;39.13;29.05;;;5.70;95.00;;;;;;4898480;29;20031;-68
2021/04/20 04:53:33;;;;;;;36.95;28.30;;;5.70;95.00;;;;;;4898595;29;20104;-72
2021/04/20 04:56:03;;;;;;;38.63;26.92;;;5.80;95.10;;;;;;4898158;29;20039;-70
2021/04/20 04:58:30;;;;;;;32.05;25.13;;;5.80;95.10;;;;;;4883888;29;20020;-70
2021/04/20 05:00:58;;;;;;;32.90;25.27;;;5.80;95.00;;;;;;4898187;29;20029;-69
2021/04/20 05:03:24;;;;;;;32.22;25.25;;;5.90;95.10;;;;;;4898531;29;20041;-68
2021/04/20 05:05:54;;;;;;;35.67;25.55;;;5.90;95.00;;;;;;4897966;29;20430;-68
2021/04/20 05:08:20;;;;;;;32.70;25.10;;;5.90;94.90;;;;;;4898593;29;20365;-67
2021/04/20 05:10:46;;;;;;;36.92;26.65;;;6.00;94.90;;;;;;4895840;29;20060;-67
2021/04/20 05:13:12;;;;;;;35.65;25.98;;;6.10;94.80;;;;;;4897562;29;20028;-67
2021/04/20 05:15:37;;;;;;;32.90;24.73;;;6.20;94.80;;;;;;4898462;29;20060;-69
2021/04/20 05:18:08;;;;;;;38.10;26.65;;;6.30;94.60;;;;;;4898431;29;20043;-76
2021/04/20 05:20:37;;;;;;;38.35;28.60;;;6.30;94.50;;;;;;4897507;29;20102;-68
2021/04/20 05:23:03;;;;;;;36.92;27.40;;;6.40;94.50;;;;;;4897474;29;20386;-68
2021/04/20 05:25:29;;;;;;;41.60;29.42;;;6.50;94.40;;;;;;4898558;29;20088;-66
2021/04/20 05:27:55;;;;;;;38.75;28.08;;;6.60;94.40;;;;;;4895325;29;20072;-68
2021/04/20 05:30:21;;;;;;;39.38;28.98;;;6.60;94.40;;;;;;4898393;29;20165;-69
2021/04/20 05:32:52;;;;;;;33.17;26.17;;;6.70;94.40;;;;;;4897956;29;20087;-67
2021/04/20 05:35:18;;;;;;;33.30;26.45;;;6.80;94.30;;;;;;4897703;29;20020;-69
2021/04/20 05:37:46;;;;;;;37.25;27.80;;;6.90;94.30;;;;;;4897786;29;20057;-67
2021/04/20 05:40:20;;;;;;;36.13;28.52;;;6.90;94.30;;;;;;4897237;29;20493;-69
2021/04/20 05:42:46;;;;;;;36.22;28.00;;;7.00;94.30;;;;;;4896247;29;20040;-75
2021/04/20 05:45:14;;;;;;;33.90;26.20;;;7.10;94.30;;;;;;4895872;29;20029;-74
2021/04/20 05:47:42;;;;;;;36.92;26.67;;;7.20;94.20;;;;;;4897510;29;20089;-75
2021/04/20 05:50:12;;;;;;;33.97;26.70;;;7.30;94.20;;;;;;4897773;29;20024;-75
2021/04/20 05:52:38;;;;;;;41.85;29.27;;;7.40;94.10;;;;;;4897636;29;20035;-68
2021/04/20 05:55:05;;;;;;;38.22;28.15;;;7.60;94.10;;;;;;4896766;29;20654;-68
2021/04/20 05:57:31;;;;;;;44.13;30.00;;;7.60;94.10;;;;;;4895321;29;20145;-68
2021/04/20 05:59:58;;;;;;;39.42;29.67;;;7.80;94.10;;;;;;4897201;29;20107;-68
2021/04/20 06:02:29;;;;;;;37.00;29.45;;;7.90;94.10;;;;;;4896984;29;20442;-67
2021/04/20 06:04:59;;;;;;;46.60;33.97;;;8.10;94.10;;;;;;4897151;29;20029;-72
2021/04/20 06:07:25;;;;;;;45.78;34.45;;;8.20;94.10;;;;;;4897668;29;20016;-67
2021/04/20 06:09:52;;;;;;;42.80;33.20;;;8.30;94.10;;;;;;4896612;29;20070;-68
2021/04/20 17:15:36;;;;;;;18.95;14.82;;;19.40;51.10;;;;;;4893971;29;20061;-65
2021/04/20 17:18:10;;;;;;;16.52;13.88;;;19.50;51.40;;;;;;4906442;29;20094;-66
2021/04/20 17:21:03;;;;;;;17.05;14.68;;;19.40;50.40;;;;;;4912706;29;20543;-66
2021/04/20 17:23:50;;;;;;;17.63;14.57;;;19.20;51.30;;;;;;4912941;29;20052;-66
2021/04/20 17:26:59;;;;;;;17.27;14.38;;;18.90;51.80;;;;;;4912016;29;20079;-70
2021/04/20 17:29:46;;;;;;;20.55;15.18;;;18.50;53.80;;;;;;4912082;29;20028;-68
2021/04/20 17:32:38;;;;;;;20.63;16.38;;;18.10;53.80;;;;;;4912105;29;20471;-68
2021/04/20 17:35:18;;;;;;;23.38;19.08;;;17.80;54.60;;;;;;4893641;29;20044;-65
2021/04/20 17:37:53;;;;;;;18.95;16.95;;;17.50;55.50;;;;;;4911607;29;20111;-66
2021/04/20 17:40:41;;;;;;;17.27;15.25;;;17.30;55.90;;;;;;4911416;29;20028;-67
2021/04/20 17:43:25;;;;;;;21.27;17.50;;;17.10;55.70;;;;;;4910556;29;20074;-66
2021/04/20 17:46:23;;;;;;;25.23;19.13;;;17.00;57.60;;;;;;4913023;29;20043;-66
2021/04/20 17:49:10;;;;;;;22.38;17.95;;;16.90;59.40;;;;;;4911692;29;20020;-69
2021/04/20 17:52:13;;;;;;;23.13;19.50;;;16.80;59.90;;;;;;4912911;29;20043;-69
2021/04/20 17:55:06;;;;;;;19.25;15.55;;;16.70;61.50;;;;;;4913411;29;20066;-69
2021/04/20 17:57:41;;;;;;;20.40;17.35;;;16.70;61.10;;;;;;4912318;29;20035;-68
2021/04/20 18:00:17;;;;;;;20.40;17.42;;;16.70;61.30;;;;;;4913122;29;20042;-67
2021/04/20 18:03:04;;;;;;;20.08;16.67;;;16.70;62.10;;;;;;4912657;29;20055;-67
2021/04/20 18:05:58;;;;;;;23.35;16.92;;;16.70;62.50;;;;;;4910378;29;20043;-67
2021/04/20 18:08:47;;;;;;;22.10;16.10;;;16.60;62.80;;;;;;4903393;29;20036;-69
2021/04/20 18:11:43;;;;;;;19.40;16.00;;;16.50;63.30;;;;;;4901099;29;20020;-69
2021/04/20 18:14:46;;;;;;;19.02;15.82;;;16.40;64.30;;;;;;4910778;29;20044;-68
2021/04/20 18:17:39;;;;;;;19.35;15.73;;;16.30;64.60;;;;;;4911731;29;20089;-69
2021/04/20 18:20:14;;;;;;;20.38;14.90;;;16.20;64.80;;;;;;4910638;29;20028;-66
2021/04/20 18:23:13;;;;;;;19.17;16.00;;;16.10;65.10;;;;;;4911957;29;20039;-68
2021/04/20 18:25:57;;;;;;;17.85;14.63;;;16.00;65.50;;;;;;4911028;29;20043;-67
2021/04/20 18:28:35;;;;;;;17.70;15.35;;;15.90;66.00;;;;;;4912298;29;20086;-66
2021/04/20 18:31:01;;;;;;;17.63;14.75;;;15.80;66.60;;;;;;4912606;29;20087;-67
2021/04/20 18:33:33;;;;;;;17.27;14.93;;;15.70;66.70;;;;;;4910079;29;20035;-67
2021/04/20 18:36:07;;;;;;;;;;;15.60;67.20;;;;;;4912049;29;20043;-66
2021/04/20 18:38:47;;;;;;;16.88;14.25;;;15.50;67.90;;;;;;4910340;29;20638;-65
2021/04/20 18:41:26;;;;;;;17.65;15.00;;;15.40;67.60;;;;;;4911729;29;20027;-68
2021/04/20 18:44:04;;;;;;;17.48;13.68;;;15.30;68.30;;;;;;4911765;29;20378;-66
2021/04/20 18:46:43;;;;;;;17.20;13.50;;;15.20;68.50;;;;;;4909777;29;20055;-66
2021/04/20 18:49:16;;;;;;;14.77;12.95;;;15.10;68.40;;;;;;4911731;29;20488;-70
2021/04/20 18:51:56;;;;;;;17.90;12.77;;;15.00;68.60;;;;;;4912199;29;20036;-67
2021/04/20 18:55:04;;;;;;;18.25;13.73;;;14.90;69.60;;;;;;4911544;29;20040;-67
2021/04/20 18:57:33;;;;;;;16.17;13.52;;;14.80;69.60;;;;;;4911515;29;20042;-69
2021/04/20 19:00:10;;;;;;;14.63;12.70;;;14.70;69.50;;;;;;4910692;29;20016;-67
2021/04/20 19:02:50;;;;;;;17.60;13.63;;;14.60;69.70;;;;;;4909790;29;20055;-69
2021/04/20 19:05:28;;;;;;;16.20;13.90;;;14.50;70.90;;;;;;4910358;29;20055;-67
2021/04/20 19:08:18;;;;;;;14.38;12.57;;;14.40;70.70;;;;;;4911181;29;20043;-68
2021/04/20 19:11:22;;;;;;;17.23;13.27;;;14.40;71.10;;;;;;4905636;29;20051;-69
2021/04/20 19:14:37;;;;;;;16.30;13.07;;;14.30;70.80;;;;;;4910700;29;20032;-69
2021/04/20 19:17:40;;;;;;;14.63;12.07;;;14.20;71.00;;;;;;4910215;29;20083;-69
2021/04/20 19:20:33;;;;;;;13.75;11.93;;;14.10;71.90;;;;;;4911791;29;20071;-70
2021/04/20 19:23:21;;;;;;;16.10;12.77;;;14.10;72.00;;;;;;4909808;29;20063;-70
2021/04/20 19:25:52;;;;;;;14.55;12.70;;;14.00;71.80;;;;;;4911493;29;20103;-65
2021/04/20 19:28:28;;;;;;;17.70;13.45;;;14.00;72.20;;;;;;4914437;29;20032;-68
2021/04/20 19:30:56;;;;;;;16.90;13.43;;;13.90;72.70;;;;;;4913723;29;20496;-67
2021/04/20 19:33:43;;;;;;;14.70;12.63;;;13.90;72.30;;;;;;4913083;29;20047;-66
2021/04/20 19:36:19;;;;;;;15.15;12.95;;;13.90;73.10;;;;;;4914124;29;20551;-70
2021/04/20 19:39:08;;;;;;;16.50;13.25;;;13.90;72.40;;;;;;4912985;29;20050;-66
2021/04/20 19:42:01;;;;;;;16.27;13.32;;;13.90;72.60;;;;;;4914398;29;20025;-68
2021/04/20 19:44:34;;;;;;;17.52;13.90;;;13.80;72.40;;;;;;4913543;29;20107;-68
2021/04/20 19:47:05;;;;;;;16.42;13.95;;;13.80;72.60;;;;;;4914503;29;20035;-68
2021/04/20 19:49:44;;;;;;;18.10;13.88;;;13.80;73.00;;;;;;4913821;29;20028;-68
2021/04/20 19:52:29;;;;;;;20.65;14.98;;;13.70;73.00;;;;;;4914507;29;20028;-66
2021/04/20 19:54:58;;;;;;;18.55;14.43;;;13.70;73.30;;;;;;4897755;29;20028;-67
2021/04/20 19:57:35;;;;;;;17.95;14.00;;;13.60;73.50;;;;;;4913735;29;20039;-67
2021/04/20 20:00:14;;;;;;;17.42;14.23;;;13.50;73.50;;;;;;4913416;29;20040;-67
2021/04/20 20:02:39;;;;;;;18.65;15.32;;;13.50;73.90;;;;;;4913801;29;20092;-68
2021/04/20 20:05:07;;;;;;;17.83;14.40;;;13.40;74.10;;;;;;4914458;29;20481;-67
2021/04/20 20:07:34;;;;;;;20.15;14.68;;;13.40;74.40;;;;;;4913188;29;20028;-68
2021/04/20 20:10:12;;;;;;;18.33;14.23;;;13.30;74.60;;;;;;4912201;29;20362;-66
2021/04/20 20:12:49;;;;;;;17.25;15.23;;;13.30;74.70;;;;;;4914747;29;20025;-67
2021/04/20 20:15:18;;;;;;;16.45;14.27;;;13.20;74.70;;;;;;4914057;29;20052;-67
2021/04/20 20:17:56;;;;;;;17.30;14.45;;;13.20;75.30;;;;;;4912963;29;20515;-66
2021/04/20 20:20:27;;;;;;;17.92;14.95;;;13.10;75.30;;;;;;4914349;29;20032;-67
2021/04/20 20:22:58;;;;;;;20.13;15.68;;;13.10;75.50;;;;;;4914296;29;20507;-65
2021/04/20 20:25:27;;;;;;;19.33;14.32;;;13.00;75.80;;;;;;4913687;29;20032;-67
2021/04/20 20:27:56;;;;;;;16.95;14.60;;;13.00;76.00;;;;;;4912793;29;20478;-67
2021/04/20 20:30:23;;;;;;;18.02;14.20;;;12.90;76.40;;;;;;4913233;29;20480;-66
2021/04/20 20:32:51;;;;;;;20.35;14.23;;;12.90;76.40;;;;;;4913345;29;20024;-67
2021/04/20 20:35:25;;;;;;;17.55;14.32;;;12.90;76.70;;;;;;4913125;29;20373;-66
2021/04/20 20:37:59;;;;;;;19.55;14.20;;;12.80;77.00;;;;;;4913744;29;20091;-67
2021/04/20 20:40:27;;;;;;;20.10;15.43;;;12.80;77.00;;;;;;4912942;29;20067;-68
2021/04/20 20:42:57;;;;;;;18.02;15.00;;;12.80;76.90;;;;;;4916904;29;20490;-66
2021/04/20 20:45:25;;;;;;;19.55;15.20;;;12.70;77.00;;;;;;4896953;29;20149;-67
2021/04/20 20:47:59;;;;;;;18.95;14.85;;;12.70;77.20;;;;;;4913737;29;20028;-66
2021/04/20 20:50:29;;;;;;;18.73;15.15;;;12.70;77.50;;;;;;4916485;29;20024;-67
2021/04/20 20:52:55;;;;;;;20.83;15.77;;;12.60;77.90;;;;;;4916841;29;20035;-67
2021/04/20 20:55:36;;;;;;;17.48;15.57;;;12.60;77.40;;;;;;4917534;29;20477;-68
2021/04/20 20:58:22;;;;;;;19.92;16.23;;;12.60;77.50;;;;;;4917587;29;20104;-66
2021/04/20 21:01:06;;;;;;;17.65;15.27;;;12.50;77.70;;;;;;4915463;29;20066;-67
2021/04/20 21:03:35;;;;;;;22.52;15.35;;;12.50;78.30;;;;;;4917184;29;20040;-67
2021/04/20 21:06:03;;;;;;;19.50;14.52;;;12.40;78.70;;;;;;4916382;29;20024;-66
2021/04/20 21:08:31;;;;;;;19.15;14.43;;;12.30;78.30;;;;;;4917325;29;20064;-66
2021/04/20 21:11:03;;;;;;;18.60;14.98;;;12.30;78.40;;;;;;4917319;29;20028;-66
2021/04/20 21:13:31;;;;;;;17.35;14.10;;;12.20;78.40;;;;;;4916226;29;20039;-67
2021/04/20 21:16:12;;;;;;;21.08;15.93;;;12.20;78.70;;;;;;4915553;29;20132;-67
2021/04/20 21:18:43;;;;;;;18.48;14.10;;;12.20;78.70;;;;;;4917315;29;20035;-66
2021/04/20 21:21:27;;;;;;;19.15;14.63;;;12.10;78.60;;;;;;4916701;29;20052;-67
2021/04/20 21:24:11;;;;;;;17.50;14.55;;;12.10;79.00;;;;;;4897920;29;20454;-68
2021/04/20 21:27:01;;;;;;;19.27;14.13;;;12.00;78.70;;;;;;4915237;29;20034;-67
2021/04/20 21:29:29;;;;;;;16.77;13.80;;;12.00;78.50;;;;;;4912141;29;20040;-67
2021/04/20 21:32:04;;;;;;;21.55;14.57;;;12.00;78.40;;;;;;4916482;29;20080;-67
2021/04/20 21:34:33;;;;;;;16.25;13.68;;;11.90;78.00;;;;;;4916298;29;20024;-65
2021/04/20 21:37:00;;;;;;;17.42;13.95;;;11.90;78.60;;;;;;4916614;29;20429;-67
2021/04/20 21:39:32;;;;;;;17.02;13.40;;;11.90;78.60;;;;;;4916299;29;20374;-68
2021/04/20 21:42:16;;;;;;;14.65;12.90;;;11.90;78.30;;;;;;4914833;29;20569;-67
2021/04/20 21:44:44;;;;;;;20.38;13.85;;;11.80;77.90;;;;;;4916738;29;20040;-69
2021/04/20 21:47:27;;;;;;;16.88;13.07;;;11.80;78.20;;;;;;4916711;29;20489;-68
2021/04/20 21:49:57;;;;;;;16.95;12.77;;;11.80;77.80;;;;;;4915134;29;20088;-69
2021/04/20 21:52:50;;;;;;;17.90;13.20;;;11.80;77.50;;;;;;4916170;29;20366;-68
2021/04/20 21:55:22;;;;;;;19.17;12.43;;;11.70;77.40;;;;;;4910908;29;20040;-68
2021/04/20 21:57:50;;;;;;;13.23;11.45;;;11.70;77.50;;;;;;4915197;29;20118;-67
2021/04/20 22:00:19;;;;;;;13.93;10.98;;;11.70;77.50;;;;;;4916154;29;20036;-66
2021/04/20 22:02:57;;;;;;;15.95;11.88;;;11.70;77.30;;;;;;4915332;29;20028;-67
2021/04/20 22:05:24;;;;;;;18.52;12.60;;;11.60;77.10;;;;;;4916296;29;20024;-67
2021/04/20 22:07:53;;;;;;;14.80;11.27;;;11.60;76.60;;;;;;4916091;29;20020;-68
2021/04/20 22:10:46;;;;;;;15.38;11.98;;;11.60;76.30;;;;;;4915552;29;20043;-66
2021/04/20 22:13:12;;;;;;;13.20;10.70;;;11.60;75.90;;;;;;4912173;29;20143;-67
2021/04/20 22:15:39;;;;;;;13.35;10.05;;;11.60;75.30;;;;;;4915639;29;20040;-67
2021/04/20 22:18:20;;;;;;;13.13;10.32;;;11.60;75.00;;;;;;4915582;29;20060;-67
2021/04/20 22:20:48;;;;;;;13.45;10.18;;;11.60;74.40;;;;;;4915905;29;20065;-67
2021/04/20 22:23:23;;;;;;;15.82;10.38;;;11.70;74.00;;;;;;4915490;29;20039;-67
2021/04/20 22:25:52;;;;;;;11.75;9.18;;;11.70;73.50;;;;;;4914040;29;20045;-66
2021/04/20 22:28:20;;;;;;;12.98;10.10;;;11.70;73.00;;;;;;4916359;29;20087;-66
2021/04/20 22:30:49;;;;;;;16.00;9.80;;;11.80;72.80;;;;;;4914999;29;20028;-67
2021/04/20 22:33:17;;;;;;;17.52;10.60;;;11.80;72.80;;;;;;4895825;29;20123;-67
2021/04/20 22:36:04;;;;;;;14.93;9.82;;;11.80;72.70;;;;;;4912004;29;20094;-65
2021/04/20 22:38:34;;;;;;;12.27;9.32;;;11.80;72.60;;;;;;4914708;29;20024;-69
2021/04/20 22:41:20;;;;;;;13.05;8.85;;;11.70;72.60;;;;;;4914346;29;20027;-67
2021/04/20 22:43:59;;;;;;;11.70;9.73;;;11.70;72.80;;;;;;4913798;29;20071;-68
2021/04/20 22:46:31;;;;;;;13.45;8.75;;;11.70;72.80;;;;;;4914513;29;20024;-67
2021/04/20 22:49:21;;;;;;;11.40;9.52;;;11.70;73.00;;;;;;4915241;29;20083;-67
2021/04/20 22:51:55;;;;;;;14.50;10.18;;;11.60;72.90;;;;;;4914526;29;20500;-69
2021/04/20 22:54:22;;;;;;;16.00;10.95;;;11.60;72.80;;;;;;4914501;29;20050;-67
2021/04/20 22:57:11;;;;;;;14.30;9.30;;;11.60;73.10;;;;;;4914028;29;20028;-67
2021/04/20 22:59:39;;;;;;;13.65;10.27;;;11.60;73.20;;;;;;4913546;29;20519;-67
2021/04/20 23:02:06;;;;;;;12.05;9.63;;;11.50;73.20;;;;;;4915464;29;20024;-68
2021/04/20 23:04:34;;;;;;;12.90;9.65;;;11.50;73.30;;;;;;4915168;29;20036;-66
2021/04/20 23:07:01;;;;;;;11.77;9.57;;;11.50;73.70;;;;;;4913121;29;20028;-66
2021/04/20 23:09:28;;;;;;;14.43;9.70;;;11.50;73.70;;;;;;4913897;29;20378;-68
2021/04/20 23:11:57;;;;;;;15.80;9.27;;;11.40;73.60;;;;;;4913726;29;20024;-67
2021/04/20 23:14:36;;;;;;;13.35;8.80;;;11.40;74.30;;;;;;4914312;29;20052;-67
2021/04/20 23:17:03;;;;;;;13.40;9.57;;;11.40;73.60;;;;;;4915181;29;20020;-67
2021/04/20 23:19:30;;;;;;;13.45;9.40;;;11.30;73.60;;;;;;4914506;29;20161;-67
2021/04/20 23:22:01;;;;;;;13.98;9.15;;;11.40;73.40;;;;;;4914753;29;20024;-68
2021/04/20 23:25:02;;;;;;;13.73;9.82;;;11.40;73.50;;;;;;4913647;29;20044;-69
2021/04/20 23:28:15;;;;;;;11.10;8.77;;;11.30;73.40;;;;;;4892651;29;20051;-67
2021/04/20 23:30:44;;;;;;;11.27;8.48;;;11.30;73.30;;;;;;4913324;29;20103;-67
2021/04/20 23:33:10;;;;;;;11.63;8.23;;;11.30;73.30;;;;;;4914931;29;20540;-66
2021/04/20 23:35:36;;;;;;;12.77;9.35;;;11.20;73.80;;;;;;4914378;29;20022;-66
2021/04/20 23:38:05;;;;;;;12.15;8.82;;;11.20;73.80;;;;;;4914902;29;20028;-66
2021/04/20 23:40:33;;;;;;;12.30;9.50;;;11.10;73.60;;;;;;4914591;29;20028;-66
2021/04/20 23:42:59;;;;;;;13.38;9.88;;;11.20;73.90;;;;;;4914390;29;20385;-66
2021/04/20 23:45:26;;;;;;;11.52;8.30;;;11.20;74.50;;;;;;4914807;29;20107;-65
2021/04/20 23:47:53;;;;;;;11.88;9.25;;;11.10;75.10;;;;;;4913615;29;20512;-66
2021/04/20 23:50:22;;;;;;;15.43;9.05;;;11.10;76.20;;;;;;4915071;29;20017;-66
2021/04/20 23:52:51;;;;;;;13.30;9.13;;;11.00;77.60;;;;;;4914650;29;20417;-64
2021/04/20 23:55:18;;;;;;;14.77;10.27;;;10.90;77.50;;;;;;4914309;29;20050;-64
2021/04/20 23:57:48;;;;;;;14.07;9.95;;;10.80;78.00;;;;;;4914378;29;20503;-65
